sensor_id;sensor_type;location;lat;lon;timestamp;temperature;humidity
780;DHT22;373;49.342;8.146;2022-08-21T00:22:42;18.60;99.90
780;DHT22;373;49.342;8.146;2022-08-21T00:28:53;18.40;1.00
780;DHT22;373;49.342;8.146;2022-08-21T00:32:22;18.30;1.00
780;DHT22;373;49.342;8.146;2022-08-21T00:51:57;18.30;1.00
780;DHT22;373;49.342;8.146;2022-08-21T00:59:56;18.30;1.00
780;DHT22;373;49.342;8.146;2022-08-21T01:03:40;18.30;1.00
780;DHT22;373;49.342;8.146;2022-08-21T01:16:00;18.30;1.00
780;DHT22;373;49.342;8.146;2022-08-21T01:19:24;18.30;1.00
780;DHT22;373;49.342;8.146;2022-08-21T01:33:53;18.20;1.00
780;DHT22;373;49.342;8.146;2022-08-21T01:39:59;17.90;99.90
780;DHT22;373;49.342;8.146;2022-08-21T01:41:20;17.80;1.00
780;DHT22;373;49.342;8.146;2022-08-21T02:02:09;17.30;41.90
780;DHT22;373;49.342;8.146;2022-08-21T02:05:15;17.30;1.00
780;DHT22;373;49.342;8.146;2022-08-21T02:08:51;17.40;1.00
780;DHT22;373;49.342;8.146;2022-08-21T02:12:22;17.30;99.90
780;DHT22;373;49.342;8.146;2022-08-21T02:25:21;17.10;99.90
780;DHT22;373;49.342;8.146;2022-08-21T03:46:56;16.80;1.00
780;DHT22;373;49.342;8.146;2022-08-21T03:50:26;16.70;1.00
780;DHT22;373;49.342;8.146;2022-08-21T04:07:08;17.00;99.90
780;DHT22;373;49.342;8.146;2022-08-21T04:14:28;16.90;99.90
780;DHT22;373;49.342;8.146;2022-08-21T04:22:02;16.70;1.00
780;DHT22;373;49.342;8.146;2022-08-21T04:29:28;16.60;1.00
780;DHT22;373;49.342;8.146;2022-08-21T04:56:48;16.70;99.90
780;DHT22;373;49.342;8.146;2022-08-21T04:59:21;16.90;99.90
780;DHT22;373;49.342;8.146;2022-08-21T05:01:52;16.80;1.00
780;DHT22;373;49.342;8.146;2022-08-21T05:04:24;16.90;1.00
780;DHT22;373;49.342;8.146;2022-08-21T05:06:58;17.00;99.90
780;DHT22;373;49.342;8.146;2022-08-21T05:09:38;17.10;64.90
780;DHT22;373;49.342;8.146;2022-08-21T05:12:05;17.60;99.90
780;DHT22;373;49.342;8.146;2022-08-21T05:14:33;18.10;99.90
780;DHT22;373;49.342;8.146;2022-08-21T05:17:00;18.50;99.90
780;DHT22;373;49.342;8.146;2022-08-21T05:19:28;18.90;1.00
780;DHT22;373;49.342;8.146;2022-08-21T05:21:55;19.10;99.90
780;DHT22;373;49.342;8.146;2022-08-21T05:24:23;19.10;99.90
780;DHT22;373;49.342;8.146;2022-08-21T05:26:51;19.50;99.90
780;DHT22;373;49.342;8.146;2022-08-21T05:29:19;20.00;1.20
780;DHT22;373;49.342;8.146;2022-08-21T05:31:48;20.40;1.00
780;DHT22;373;49.342;8.146;2022-08-21T05:34:18;20.80;1.00
780;DHT22;373;49.342;8.146;2022-08-21T05:36:46;20.90;1.00
780;DHT22;373;49.342;8.146;2022-08-21T05:39:13;21.00;1.00
780;DHT22;373;49.342;8.146;2022-08-21T05:41:40;21.00;99.90
780;DHT22;373;49.342;8.146;2022-08-21T05:44:09;20.90;1.00
780;DHT22;373;49.342;8.146;2022-08-21T05:46:36;20.70;1.00
780;DHT22;373;49.342;8.146;2022-08-21T05:49:03;21.20;1.00
780;DHT22;373;49.342;8.146;2022-08-21T05:51:33;21.80;1.00
780;DHT22;373;49.342;8.146;2022-08-21T05:54:01;22.40;1.00
780;DHT22;373;49.342;8.146;2022-08-21T05:56:28;22.40;99.90
780;DHT22;373;49.342;8.146;2022-08-21T05:58:55;22.40;1.00
780;DHT22;373;49.342;8.146;2022-08-21T06:01:24;22.90;99.90
780;DHT22;373;49.342;8.146;2022-08-21T06:03:51;22.70;1.00
780;DHT22;373;49.342;8.146;2022-08-21T06:06:18;22.80;23.00
780;DHT22;373;49.342;8.146;2022-08-21T06:08:45;22.80;73.30
780;DHT22;373;49.342;8.146;2022-08-21T06:11:12;22.50;83.90
780;DHT22;373;49.342;8.146;2022-08-21T06:13:40;22.40;84.40
780;DHT22;373;49.342;8.146;2022-08-21T06:16:09;22.70;83.90
780;DHT22;373;49.342;8.146;2022-08-21T06:18:39;23.40;81.80
780;DHT22;373;49.342;8.146;2022-08-21T06:21:06;23.90;79.60
780;DHT22;373;49.342;8.146;2022-08-21T06:23:34;24.30;78.30
780;DHT22;373;49.342;8.146;2022-08-21T06:26:02;24.60;76.10
780;DHT22;373;49.342;8.146;2022-08-21T06:28:30;25.10;74.30
780;DHT22;373;49.342;8.146;2022-08-21T06:30:59;25.00;73.50
780;DHT22;373;49.342;8.146;2022-08-21T06:33:27;24.80;72.70
780;DHT22;373;49.342;8.146;2022-08-21T06:35:55;25.00;73.80
780;DHT22;373;49.342;8.146;2022-08-21T06:38:22;25.40;73.00
780;DHT22;373;49.342;8.146;2022-08-21T06:40:49;25.50;71.20
780;DHT22;373;49.342;8.146;2022-08-21T06:43:17;25.70;69.10
780;DHT22;373;49.342;8.146;2022-08-21T06:45:44;25.70;68.40
780;DHT22;373;49.342;8.146;2022-08-21T06:48:12;25.30;68.90
780;DHT22;373;49.342;8.146;2022-08-21T06:50:39;25.30;71.40
780;DHT22;373;49.342;8.146;2022-08-21T06:53:12;25.60;70.00
780;DHT22;373;49.342;8.146;2022-08-21T06:55:40;25.50;69.60
780;DHT22;373;49.342;8.146;2022-08-21T06:58:08;25.60;70.40
780;DHT22;373;49.342;8.146;2022-08-21T07:00:38;25.40;70.70
780;DHT22;373;49.342;8.146;2022-08-21T07:03:06;24.90;72.00
780;DHT22;373;49.342;8.146;2022-08-21T07:05:33;24.90;74.30
780;DHT22;373;49.342;8.146;2022-08-21T07:08:01;24.20;76.30
780;DHT22;373;49.342;8.146;2022-08-21T07:10:30;24.50;76.70
780;DHT22;373;49.342;8.146;2022-08-21T07:12:57;24.80;75.20
780;DHT22;373;49.342;8.146;2022-08-21T07:15:24;24.70;74.70
780;DHT22;373;49.342;8.146;2022-08-21T07:17:51;23.20;75.90
780;DHT22;373;49.342;8.146;2022-08-21T07:20:18;23.50;77.60
780;DHT22;373;49.342;8.146;2022-08-21T07:22:46;24.20;75.30
780;DHT22;373;49.342;8.146;2022-08-21T07:25:13;24.20;75.80
780;DHT22;373;49.342;8.146;2022-08-21T07:27:41;24.10;75.70
780;DHT22;373;49.342;8.146;2022-08-21T07:30:09;24.30;75.10
780;DHT22;373;49.342;8.146;2022-08-21T07:32:37;24.20;73.90
780;DHT22;373;49.342;8.146;2022-08-21T07:35:04;24.00;74.40
780;DHT22;373;49.342;8.146;2022-08-21T07:37:32;24.00;74.70
780;DHT22;373;49.342;8.146;2022-08-21T07:39:59;24.10;76.10
780;DHT22;373;49.342;8.146;2022-08-21T07:42:26;24.50;74.90
780;DHT22;373;49.342;8.146;2022-08-21T07:44:56;23.90;75.50
780;DHT22;373;49.342;8.146;2022-08-21T07:47:23;24.20;74.50
780;DHT22;373;49.342;8.146;2022-08-21T07:49:50;24.20;75.50
780;DHT22;373;49.342;8.146;2022-08-21T07:52:17;24.90;74.10
780;DHT22;373;49.342;8.146;2022-08-21T07:54:45;25.00;72.80
780;DHT22;373;49.342;8.146;2022-08-21T07:57:13;25.30;71.50
780;DHT22;373;49.342;8.146;2022-08-21T07:59:40;25.10;70.80
780;DHT22;373;49.342;8.146;2022-08-21T08:02:08;25.10;71.40
780;DHT22;373;49.342;8.146;2022-08-21T08:04:36;25.30;71.50
780;DHT22;373;49.342;8.146;2022-08-21T08:07:03;25.70;70.40
780;DHT22;373;49.342;8.146;2022-08-21T08:09:31;25.30;71.00
780;DHT22;373;49.342;8.146;2022-08-21T08:11:58;25.70;70.60
780;DHT22;373;49.342;8.146;2022-08-21T08:14:25;26.20;69.60
780;DHT22;373;49.342;8.146;2022-08-21T08:16:52;26.10;69.90
780;DHT22;373;49.342;8.146;2022-08-21T08:19:21;26.20;68.90
780;DHT22;373;49.342;8.146;2022-08-21T08:21:49;26.30;68.50
780;DHT22;373;49.342;8.146;2022-08-21T08:24:16;26.10;67.10
780;DHT22;373;49.342;8.146;2022-08-21T08:26:43;26.40;66.80
780;DHT22;373;49.342;8.146;2022-08-21T08:29:11;26.70;64.30
780;DHT22;373;49.342;8.146;2022-08-21T08:31:38;27.00;63.30
780;DHT22;373;49.342;8.146;2022-08-21T08:34:06;27.60;62.80
780;DHT22;373;49.342;8.146;2022-08-21T08:36:36;27.70;61.00
780;DHT22;373;49.342;8.146;2022-08-21T08:39:04;27.70;61.10
780;DHT22;373;49.342;8.146;2022-08-21T08:41:32;28.30;59.70
780;DHT22;373;49.342;8.146;2022-08-21T08:44:03;27.70;59.70
780;DHT22;373;49.342;8.146;2022-08-21T08:46:35;27.80;60.30
780;DHT22;373;49.342;8.146;2022-08-21T08:49:08;27.70;59.50
780;DHT22;373;49.342;8.146;2022-08-21T08:51:44;27.40;59.50
780;DHT22;373;49.342;8.146;2022-08-21T08:54:18;27.70;59.30
780;DHT22;373;49.342;8.146;2022-08-21T08:56:47;28.00;58.50
780;DHT22;373;49.342;8.146;2022-08-21T08:59:21;27.50;59.30
780;DHT22;373;49.342;8.146;2022-08-21T09:01:49;28.10;59.10
780;DHT22;373;49.342;8.146;2022-08-21T09:04:22;28.30;57.70
780;DHT22;373;49.342;8.146;2022-08-21T09:07:00;28.00;57.00
780;DHT22;373;49.342;8.146;2022-08-21T09:09:37;28.90;56.70
780;DHT22;373;49.342;8.146;2022-08-21T09:12:10;29.00;56.30
780;DHT22;373;49.342;8.146;2022-08-21T09:14:50;29.60;55.80
780;DHT22;373;49.342;8.146;2022-08-21T09:17:33;28.90;54.80
780;DHT22;373;49.342;8.146;2022-08-21T09:20:11;27.80;57.20
780;DHT22;373;49.342;8.146;2022-08-21T09:22:49;28.00;57.30
780;DHT22;373;49.342;8.146;2022-08-21T09:25:21;27.80;57.50
780;DHT22;373;49.342;8.146;2022-08-21T09:27:50;28.80;56.80
780;DHT22;373;49.342;8.146;2022-08-21T09:30:17;28.70;55.50
780;DHT22;373;49.342;8.146;2022-08-21T09:32:46;28.80;55.20
780;DHT22;373;49.342;8.146;2022-08-21T09:35:15;28.40;54.90
780;DHT22;373;49.342;8.146;2022-08-21T09:37:51;28.20;54.70
780;DHT22;373;49.342;8.146;2022-08-21T09:40:28;28.90;55.60
780;DHT22;373;49.342;8.146;2022-08-21T09:42:58;28.70;53.80
780;DHT22;373;49.342;8.146;2022-08-21T09:45:26;29.10;54.40
780;DHT22;373;49.342;8.146;2022-08-21T09:47:53;29.60;53.30
780;DHT22;373;49.342;8.146;2022-08-21T09:50:23;30.00;52.30
780;DHT22;373;49.342;8.146;2022-08-21T09:52:54;29.90;53.20
780;DHT22;373;49.342;8.146;2022-08-21T09:55:31;29.20;52.30
780;DHT22;373;49.342;8.146;2022-08-21T09:58:17;29.20;52.90
780;DHT22;373;49.342;8.146;2022-08-21T10:00:45;29.40;53.20
780;DHT22;373;49.342;8.146;2022-08-21T10:03:17;29.40;52.90
780;DHT22;373;49.342;8.146;2022-08-21T10:05:55;28.80;53.90
780;DHT22;373;49.342;8.146;2022-08-21T10:08:25;28.30;54.80
780;DHT22;373;49.342;8.146;2022-08-21T10:10:56;27.90;54.60
780;DHT22;373;49.342;8.146;2022-08-21T10:13:36;27.70;55.30
780;DHT22;373;49.342;8.146;2022-08-21T10:16:15;28.40;55.40
780;DHT22;373;49.342;8.146;2022-08-21T10:18:49;28.90;55.40
780;DHT22;373;49.342;8.146;2022-08-21T10:21:23;29.40;53.50
780;DHT22;373;49.342;8.146;2022-08-21T10:24:02;28.90;54.00
780;DHT22;373;49.342;8.146;2022-08-21T10:26:43;28.90;53.40
780;DHT22;373;49.342;8.146;2022-08-21T10:29:28;28.70;54.40
780;DHT22;373;49.342;8.146;2022-08-21T10:32:05;27.90;54.80
780;DHT22;373;49.342;8.146;2022-08-21T10:34:41;27.10;56.20
780;DHT22;373;49.342;8.146;2022-08-21T10:37:20;27.60;57.20
780;DHT22;373;49.342;8.146;2022-08-21T10:40:02;27.80;54.90
780;DHT22;373;49.342;8.146;2022-08-21T10:42:40;28.50;55.00
780;DHT22;373;49.342;8.146;2022-08-21T10:45:15;29.10;53.50
780;DHT22;373;49.342;8.146;2022-08-21T10:47:57;29.80;53.60
780;DHT22;373;49.342;8.146;2022-08-21T10:50:31;29.20;52.80
780;DHT22;373;49.342;8.146;2022-08-21T10:53:20;28.30;53.90
780;DHT22;373;49.342;8.146;2022-08-21T10:55:55;27.50;55.50
780;DHT22;373;49.342;8.146;2022-08-21T10:58:28;27.70;55.30
780;DHT22;373;49.342;8.146;2022-08-21T11:01:03;28.20;55.50
780;DHT22;373;49.342;8.146;2022-08-21T11:03:33;29.10;53.80
780;DHT22;373;49.342;8.146;2022-08-21T11:06:08;29.00;53.60
780;DHT22;373;49.342;8.146;2022-08-21T11:08:39;29.10;53.00
780;DHT22;373;49.342;8.146;2022-08-21T11:11:12;29.30;53.50
780;DHT22;373;49.342;8.146;2022-08-21T11:13:44;29.00;52.80
780;DHT22;373;49.342;8.146;2022-08-21T11:16:17;28.90;53.00
780;DHT22;373;49.342;8.146;2022-08-21T11:18:53;28.50;54.00
780;DHT22;373;49.342;8.146;2022-08-21T11:21:32;28.80;53.50
780;DHT22;373;49.342;8.146;2022-08-21T11:24:24;29.30;53.00
780;DHT22;373;49.342;8.146;2022-08-21T11:27:00;28.90;53.00
780;DHT22;373;49.342;8.146;2022-08-21T11:29:32;28.50;52.70
780;DHT22;373;49.342;8.146;2022-08-21T11:32:13;28.60;52.80
780;DHT22;373;49.342;8.146;2022-08-21T11:34:51;28.20;53.30
780;DHT22;373;49.342;8.146;2022-08-21T11:37:35;29.10;52.80
780;DHT22;373;49.342;8.146;2022-08-21T11:40:12;29.70;52.30
780;DHT22;373;49.342;8.146;2022-08-21T11:42:52;30.20;52.40
780;DHT22;373;49.342;8.146;2022-08-21T11:45:30;30.60;50.40
780;DHT22;373;49.342;8.146;2022-08-21T11:48:06;30.10;50.40
780;DHT22;373;49.342;8.146;2022-08-21T11:50:36;29.30;51.50
780;DHT22;373;49.342;8.146;2022-08-21T11:53:09;29.10;51.70
780;DHT22;373;49.342;8.146;2022-08-21T11:55:42;29.10;52.60
780;DHT22;373;49.342;8.146;2022-08-21T11:58:24;29.10;51.80
780;DHT22;373;49.342;8.146;2022-08-21T12:00:54;29.00;52.50
780;DHT22;373;49.342;8.146;2022-08-21T12:03:27;28.80;52.50
780;DHT22;373;49.342;8.146;2022-08-21T12:05:57;29.10;52.80
780;DHT22;373;49.342;8.146;2022-08-21T12:08:30;29.30;52.20
780;DHT22;373;49.342;8.146;2022-08-21T12:11:04;28.90;52.60
780;DHT22;373;49.342;8.146;2022-08-21T12:13:36;28.90;51.90
780;DHT22;373;49.342;8.146;2022-08-21T12:16:06;29.60;52.20
780;DHT22;373;49.342;8.146;2022-08-21T12:18:33;29.70;50.90
780;DHT22;373;49.342;8.146;2022-08-21T12:21:16;30.30;51.00
780;DHT22;373;49.342;8.146;2022-08-21T12:23:46;30.90;50.40
780;DHT22;373;49.342;8.146;2022-08-21T12:26:26;30.60;48.90
780;DHT22;373;49.342;8.146;2022-08-21T12:29:12;29.70;50.20
780;DHT22;373;49.342;8.146;2022-08-21T12:31:57;29.40;51.20
780;DHT22;373;49.342;8.146;2022-08-21T12:34:30;29.20;51.80
780;DHT22;373;49.342;8.146;2022-08-21T12:37:02;29.90;50.60
780;DHT22;373;49.342;8.146;2022-08-21T12:39:32;30.50;50.30
780;DHT22;373;49.342;8.146;2022-08-21T12:42:03;29.40;50.30
780;DHT22;373;49.342;8.146;2022-08-21T12:44:38;29.30;50.60
780;DHT22;373;49.342;8.146;2022-08-21T12:47:15;28.80;50.90
780;DHT22;373;49.342;8.146;2022-08-21T12:49:51;28.70;51.50
780;DHT22;373;49.342;8.146;2022-08-21T12:52:22;29.30;51.20
780;DHT22;373;49.342;8.146;2022-08-21T12:54:49;29.40;51.10
780;DHT22;373;49.342;8.146;2022-08-21T12:57:23;29.50;50.70
780;DHT22;373;49.342;8.146;2022-08-21T12:59:56;29.50;50.30
780;DHT22;373;49.342;8.146;2022-08-21T13:02:26;30.20;49.40
780;DHT22;373;49.342;8.146;2022-08-21T13:04:56;29.40;49.90
780;DHT22;373;49.342;8.146;2022-08-21T13:07:27;28.90;50.00
780;DHT22;373;49.342;8.146;2022-08-21T13:09:57;28.60;51.10
780;DHT22;373;49.342;8.146;2022-08-21T13:12:27;29.10;51.10
780;DHT22;373;49.342;8.146;2022-08-21T13:14:57;29.60;50.10
780;DHT22;373;49.342;8.146;2022-08-21T13:17:25;29.90;49.30
780;DHT22;373;49.342;8.146;2022-08-21T13:19:58;29.50;49.80
780;DHT22;373;49.342;8.146;2022-08-21T13:22:27;29.50;49.50
780;DHT22;373;49.342;8.146;2022-08-21T13:24:54;29.20;50.00
780;DHT22;373;49.342;8.146;2022-08-21T13:27:25;28.90;50.50
780;DHT22;373;49.342;8.146;2022-08-21T13:30:10;28.60;50.40
780;DHT22;373;49.342;8.146;2022-08-21T13:32:44;28.20;50.90
780;DHT22;373;49.342;8.146;2022-08-21T13:35:18;28.00;51.40
780;DHT22;373;49.342;8.146;2022-08-21T13:37:47;27.80;51.70
780;DHT22;373;49.342;8.146;2022-08-21T13:40:17;27.90;51.70
780;DHT22;373;49.342;8.146;2022-08-21T13:42:46;28.20;52.20
780;DHT22;373;49.342;8.146;2022-08-21T13:45:24;28.50;51.00
780;DHT22;373;49.342;8.146;2022-08-21T13:47:53;28.20;50.70
780;DHT22;373;49.342;8.146;2022-08-21T13:50:22;28.10;51.20
780;DHT22;373;49.342;8.146;2022-08-21T13:52:57;28.40;51.30
780;DHT22;373;49.342;8.146;2022-08-21T13:55:33;28.80;50.80
780;DHT22;373;49.342;8.146;2022-08-21T13:58:03;29.30;50.00
780;DHT22;373;49.342;8.146;2022-08-21T14:00:33;29.40;49.50
780;DHT22;373;49.342;8.146;2022-08-21T14:03:04;29.50;50.10
780;DHT22;373;49.342;8.146;2022-08-21T14:05:35;29.60;48.70
780;DHT22;373;49.342;8.146;2022-08-21T14:08:06;29.90;48.60
780;DHT22;373;49.342;8.146;2022-08-21T14:10:36;29.40;48.60
780;DHT22;373;49.342;8.146;2022-08-21T14:13:06;29.30;49.30
780;DHT22;373;49.342;8.146;2022-08-21T14:15:35;29.50;48.60
780;DHT22;373;49.342;8.146;2022-08-21T14:18:13;29.30;49.30
780;DHT22;373;49.342;8.146;2022-08-21T14:20:42;28.60;49.40
780;DHT22;373;49.342;8.146;2022-08-21T14:23:09;28.10;50.40
780;DHT22;373;49.342;8.146;2022-08-21T14:25:40;28.00;50.90
780;DHT22;373;49.342;8.146;2022-08-21T14:28:18;28.00;50.80
780;DHT22;373;49.342;8.146;2022-08-21T14:30:47;28.20;50.40
780;DHT22;373;49.342;8.146;2022-08-21T14:33:21;28.50;50.20
780;DHT22;373;49.342;8.146;2022-08-21T14:35:49;28.40;49.90
780;DHT22;373;49.342;8.146;2022-08-21T14:38:18;28.30;50.20
780;DHT22;373;49.342;8.146;2022-08-21T14:40:48;28.50;50.10
780;DHT22;373;49.342;8.146;2022-08-21T14:43:16;28.60;50.00
780;DHT22;373;49.342;8.146;2022-08-21T14:45:44;28.50;49.80
780;DHT22;373;49.342;8.146;2022-08-21T14:48:13;28.50;49.80
780;DHT22;373;49.342;8.146;2022-08-21T14:50:40;28.60;49.50
780;DHT22;373;49.342;8.146;2022-08-21T14:53:07;29.10;48.90
780;DHT22;373;49.342;8.146;2022-08-21T14:55:35;29.30;48.10
780;DHT22;373;49.342;8.146;2022-08-21T14:58:17;29.60;48.00
780;DHT22;373;49.342;8.146;2022-08-21T15:00:44;29.90;48.00
780;DHT22;373;49.342;8.146;2022-08-21T15:03:12;30.00;47.30
780;DHT22;373;49.342;8.146;2022-08-21T15:05:39;29.90;47.20
780;DHT22;373;49.342;8.146;2022-08-21T15:08:06;29.80;47.60
780;DHT22;373;49.342;8.146;2022-08-21T15:10:35;29.40;47.50
780;DHT22;373;49.342;8.146;2022-08-21T15:13:02;29.50;47.50
780;DHT22;373;49.342;8.146;2022-08-21T15:15:32;29.20;47.30
780;DHT22;373;49.342;8.146;2022-08-21T15:18:00;29.20;48.30
780;DHT22;373;49.342;8.146;2022-08-21T15:20:29;29.40;47.30
780;DHT22;373;49.342;8.146;2022-08-21T15:22:56;29.30;47.40
780;DHT22;373;49.342;8.146;2022-08-21T15:25:23;28.80;48.20
780;DHT22;373;49.342;8.146;2022-08-21T15:27:50;28.60;48.10
780;DHT22;373;49.342;8.146;2022-08-21T15:30:17;28.90;48.30
780;DHT22;373;49.342;8.146;2022-08-21T15:32:44;28.80;47.90
780;DHT22;373;49.342;8.146;2022-08-21T15:35:12;28.70;48.50
780;DHT22;373;49.342;8.146;2022-08-21T15:37:40;28.80;48.30
780;DHT22;373;49.342;8.146;2022-08-21T15:40:09;28.60;48.70
780;DHT22;373;49.342;8.146;2022-08-21T15:42:38;28.40;48.90
780;DHT22;373;49.342;8.146;2022-08-21T15:45:06;28.30;49.10
780;DHT22;373;49.342;8.146;2022-08-21T15:47:35;28.30;49.30
780;DHT22;373;49.342;8.146;2022-08-21T15:50:05;28.60;49.30
780;DHT22;373;49.342;8.146;2022-08-21T15:52:33;29.00;48.10
780;DHT22;373;49.342;8.146;2022-08-21T15:55:02;29.00;47.70
780;DHT22;373;49.342;8.146;2022-08-21T15:57:30;29.10;47.20
780;DHT22;373;49.342;8.146;2022-08-21T15:59:58;28.80;47.10
780;DHT22;373;49.342;8.146;2022-08-21T16:02:39;28.70;47.70
780;DHT22;373;49.342;8.146;2022-08-21T16:05:07;28.60;47.50
780;DHT22;373;49.342;8.146;2022-08-21T16:07:36;28.30;48.00
780;DHT22;373;49.342;8.146;2022-08-21T16:10:05;28.30;48.90
780;DHT22;373;49.342;8.146;2022-08-21T16:12:36;28.40;47.90
780;DHT22;373;49.342;8.146;2022-08-21T16:15:07;28.50;48.20
780;DHT22;373;49.342;8.146;2022-08-21T16:17:37;28.70;47.70
780;DHT22;373;49.342;8.146;2022-08-21T16:20:08;28.70;47.40
780;DHT22;373;49.342;8.146;2022-08-21T16:22:36;28.80;47.30
780;DHT22;373;49.342;8.146;2022-08-21T16:25:06;29.00;46.80
780;DHT22;373;49.342;8.146;2022-08-21T16:27:34;29.50;47.20
780;DHT22;373;49.342;8.146;2022-08-21T16:30:02;29.40;46.90
780;DHT22;373;49.342;8.146;2022-08-21T16:32:30;29.40;47.30
780;DHT22;373;49.342;8.146;2022-08-21T16:34:57;29.40;47.40
780;DHT22;373;49.342;8.146;2022-08-21T16:37:24;29.20;47.00
780;DHT22;373;49.342;8.146;2022-08-21T16:39:51;28.90;47.80
780;DHT22;373;49.342;8.146;2022-08-21T16:42:22;29.10;48.00
780;DHT22;373;49.342;8.146;2022-08-21T16:44:50;29.30;48.00
780;DHT22;373;49.342;8.146;2022-08-21T16:47:17;29.30;48.00
780;DHT22;373;49.342;8.146;2022-08-21T16:49:44;29.20;48.00
780;DHT22;373;49.342;8.146;2022-08-21T16:52:12;29.00;48.30
780;DHT22;373;49.342;8.146;2022-08-21T16:54:41;28.80;47.80
780;DHT22;373;49.342;8.146;2022-08-21T16:57:09;29.10;48.20
780;DHT22;373;49.342;8.146;2022-08-21T16:59:38;29.40;47.30
780;DHT22;373;49.342;8.146;2022-08-21T17:02:14;29.50;47.20
780;DHT22;373;49.342;8.146;2022-08-21T17:04:43;29.30;47.30
780;DHT22;373;49.342;8.146;2022-08-21T17:07:10;29.40;47.40
780;DHT22;373;49.342;8.146;2022-08-21T17:09:37;29.60;47.50
780;DHT22;373;49.342;8.146;2022-08-21T17:12:05;29.60;47.30
780;DHT22;373;49.342;8.146;2022-08-21T17:14:34;29.50;47.50
780;DHT22;373;49.342;8.146;2022-08-21T17:17:06;29.40;48.80
780;DHT22;373;49.342;8.146;2022-08-21T17:19:34;29.40;47.50
780;DHT22;373;49.342;8.146;2022-08-21T17:22:02;29.10;48.00
780;DHT22;373;49.342;8.146;2022-08-21T17:24:29;29.10;48.60
780;DHT22;373;49.342;8.146;2022-08-21T17:27:00;29.20;48.50
780;DHT22;373;49.342;8.146;2022-08-21T17:29:33;29.00;48.70
780;DHT22;373;49.342;8.146;2022-08-21T17:32:12;28.80;48.50
780;DHT22;373;49.342;8.146;2022-08-21T17:34:52;28.80;48.50
780;DHT22;373;49.342;8.146;2022-08-21T17:37:20;29.00;48.60
780;DHT22;373;49.342;8.146;2022-08-21T17:39:47;29.00;48.70
780;DHT22;373;49.342;8.146;2022-08-21T17:42:14;29.10;49.00
780;DHT22;373;49.342;8.146;2022-08-21T17:44:44;29.20;48.80
780;DHT22;373;49.342;8.146;2022-08-21T17:47:13;29.20;48.80
780;DHT22;373;49.342;8.146;2022-08-21T17:49:41;29.30;48.90
780;DHT22;373;49.342;8.146;2022-08-21T17:52:08;28.90;49.40
780;DHT22;373;49.342;8.146;2022-08-21T17:54:36;28.80;50.20
780;DHT22;373;49.342;8.146;2022-08-21T17:57:06;28.60;50.80
780;DHT22;373;49.342;8.146;2022-08-21T17:59:35;28.40;51.10
780;DHT22;373;49.342;8.146;2022-08-21T18:02:03;28.10;51.30
780;DHT22;373;49.342;8.146;2022-08-21T18:04:32;28.50;51.20
780;DHT22;373;49.342;8.146;2022-08-21T18:07:02;28.60;51.10
780;DHT22;373;49.342;8.146;2022-08-21T18:09:29;28.20;51.30
780;DHT22;373;49.342;8.146;2022-08-21T18:11:58;27.90;52.20
780;DHT22;373;49.342;8.146;2022-08-21T18:14:30;28.00;52.00
780;DHT22;373;49.342;8.146;2022-08-21T18:16:59;27.80;52.60
780;DHT22;373;49.342;8.146;2022-08-21T18:19:32;27.80;52.80
780;DHT22;373;49.342;8.146;2022-08-21T18:21:59;27.80;52.10
780;DHT22;373;49.342;8.146;2022-08-21T18:24:28;27.70;52.20
780;DHT22;373;49.342;8.146;2022-08-21T18:26:56;27.50;52.70
780;DHT22;373;49.342;8.146;2022-08-21T18:29:24;27.60;53.20
780;DHT22;373;49.342;8.146;2022-08-21T18:31:51;27.50;52.60
780;DHT22;373;49.342;8.146;2022-08-21T18:34:23;27.70;52.50
780;DHT22;373;49.342;8.146;2022-08-21T18:36:53;27.40;52.90
780;DHT22;373;49.342;8.146;2022-08-21T18:39:22;27.10;53.10
780;DHT22;373;49.342;8.146;2022-08-21T18:41:52;26.90;54.40
780;DHT22;373;49.342;8.146;2022-08-21T18:44:21;26.90;54.30
780;DHT22;373;49.342;8.146;2022-08-21T18:46:51;26.50;55.20
780;DHT22;373;49.342;8.146;2022-08-21T18:49:20;26.20;55.10
780;DHT22;373;49.342;8.146;2022-08-21T18:51:47;26.00;55.40
780;DHT22;373;49.342;8.146;2022-08-21T18:54:16;25.80;55.50
780;DHT22;373;49.342;8.146;2022-08-21T18:56:43;25.80;55.80
780;DHT22;373;49.342;8.146;2022-08-21T18:59:12;25.70;55.70
780;DHT22;373;49.342;8.146;2022-08-21T19:01:40;25.60;55.90
780;DHT22;373;49.342;8.146;2022-08-21T19:04:09;25.60;56.00
780;DHT22;373;49.342;8.146;2022-08-21T19:06:37;25.50;56.20
780;DHT22;373;49.342;8.146;2022-08-21T19:09:06;25.50;56.30
780;DHT22;373;49.342;8.146;2022-08-21T19:11:37;25.30;56.90
780;DHT22;373;49.342;8.146;2022-08-21T19:14:07;25.30;56.40
780;DHT22;373;49.342;8.146;2022-08-21T19:16:36;25.40;56.40
780;DHT22;373;49.342;8.146;2022-08-21T19:19:04;25.60;56.20
780;DHT22;373;49.342;8.146;2022-08-21T19:21:31;25.40;56.30
780;DHT22;373;49.342;8.146;2022-08-21T19:23:58;25.10;57.00
780;DHT22;373;49.342;8.146;2022-08-21T19:26:27;24.70;57.90
780;DHT22;373;49.342;8.146;2022-08-21T19:28:59;24.40;58.30
780;DHT22;373;49.342;8.146;2022-08-21T19:31:31;24.40;58.30
780;DHT22;373;49.342;8.146;2022-08-21T19:34:00;24.30;58.50
780;DHT22;373;49.342;8.146;2022-08-21T19:36:28;24.30;58.60
780;DHT22;373;49.342;8.146;2022-08-21T19:38:55;24.10;58.90
780;DHT22;373;49.342;8.146;2022-08-21T19:41:25;23.90;59.40
780;DHT22;373;49.342;8.146;2022-08-21T19:43:57;23.70;60.10
780;DHT22;373;49.342;8.146;2022-08-21T19:46:26;23.70;60.20
780;DHT22;373;49.342;8.146;2022-08-21T19:48:54;23.60;60.50
780;DHT22;373;49.342;8.146;2022-08-21T19:51:22;23.70;60.90
780;DHT22;373;49.342;8.146;2022-08-21T19:53:50;23.80;61.30
780;DHT22;373;49.342;8.146;2022-08-21T19:56:21;23.90;60.60
780;DHT22;373;49.342;8.146;2022-08-21T19:58:50;23.80;60.90
780;DHT22;373;49.342;8.146;2022-08-21T20:01:20;23.50;61.50
780;DHT22;373;49.342;8.146;2022-08-21T20:03:48;23.60;61.80
780;DHT22;373;49.342;8.146;2022-08-21T20:06:16;23.60;61.60
780;DHT22;373;49.342;8.146;2022-08-21T20:08:43;23.70;61.50
780;DHT22;373;49.342;8.146;2022-08-21T20:11:11;23.50;61.70
780;DHT22;373;49.342;8.146;2022-08-21T20:13:39;23.50;62.10
780;DHT22;373;49.342;8.146;2022-08-21T20:16:10;23.20;62.40
780;DHT22;373;49.342;8.146;2022-08-21T20:18:40;23.10;1.00
780;DHT22;373;49.342;8.146;2022-08-21T20:21:07;23.00;1.00
780;DHT22;373;49.342;8.146;2022-08-21T20:23:35;23.00;1.00
780;DHT22;373;49.342;8.146;2022-08-21T20:26:03;23.00;1.00
780;DHT22;373;49.342;8.146;2022-08-21T20:28:30;23.00;1.00
780;DHT22;373;49.342;8.146;2022-08-21T20:30:58;23.00;1.00
780;DHT22;373;49.342;8.146;2022-08-21T20:33:25;23.00;1.00
780;DHT22;373;49.342;8.146;2022-08-21T20:35:53;22.80;1.00
780;DHT22;373;49.342;8.146;2022-08-21T20:38:21;22.70;1.00
780;DHT22;373;49.342;8.146;2022-08-21T20:40:50;22.70;1.00
780;DHT22;373;49.342;8.146;2022-08-21T20:43:19;22.70;1.00
780;DHT22;373;49.342;8.146;2022-08-21T20:45:47;22.80;1.00
780;DHT22;373;49.342;8.146;2022-08-21T20:48:19;22.70;1.00
780;DHT22;373;49.342;8.146;2022-08-21T20:50:54;22.70;1.00
780;DHT22;373;49.342;8.146;2022-08-21T20:53:30;22.60;1.00
780;DHT22;373;49.342;8.146;2022-08-21T20:56:01;22.40;1.00
780;DHT22;373;49.342;8.146;2022-08-21T20:58:32;22.30;1.00